sensor_id;sensor_type;location;lat;lon;timestamp;P1;durP1;ratioP1;P2;durP2;ratioP2
53072;SDS011;38955;48.916;2.336;2023-10-08T00:01:25;21.63;;;13.02;;
53072;SDS011;38955;48.916;2.336;2023-10-08T00:03:28;23.58;;;14.80;;
53072;SDS011;38955;48.916;2.336;2023-10-08T00:05:34;26.20;;;16.23;;
53072;SDS011;38955;48.916;2.336;2023-10-08T00:07:37;19.13;;;12.27;;
53072;SDS011;38955;48.916;2.336;2023-10-08T00:09:44;22.30;;;13.82;;
53072;SDS011;38955;48.916;2.336;2023-10-08T00:11:46;22.65;;;14.23;;
53072;SDS011;38955;48.916;2.336;2023-10-08T00:13:54;38.38;;;22.58;;
53072;SDS011;38955;48.916;2.336;2023-10-08T00:15:58;42.08;;;24.20;;
53072;SDS011;38955;48.916;2.336;2023-10-08T00:18:00;40.15;;;23.17;;
53072;SDS011;38955;48.916;2.336;2023-10-08T00:20:04;37.75;;;23.73;;
53072;SDS011;38955;48.916;2.336;2023-10-08T00:22:07;37.95;;;24.00;;
53072;SDS011;38955;48.916;2.336;2023-10-08T00:24:10;38.80;;;21.83;;
53072;SDS011;38955;48.916;2.336;2023-10-08T00:26:16;36.75;;;22.00;;
53072;SDS011;38955;48.916;2.336;2023-10-08T00:28:20;35.28;;;22.00;;
53072;SDS011;38955;48.916;2.336;2023-10-08T00:30:22;32.33;;;20.33;;
53072;SDS011;38955;48.916;2.336;2023-10-08T00:32:24;32.70;;;19.98;;
53072;SDS011;38955;48.916;2.336;2023-10-08T00:34:26;33.13;;;20.10;;
53072;SDS011;38955;48.916;2.336;2023-10-08T00:36:30;35.70;;;20.10;;
53072;SDS011;38955;48.916;2.336;2023-10-08T00:38:32;30.05;;;17.13;;
53072;SDS011;38955;48.916;2.336;2023-10-08T00:40:37;28.67;;;18.60;;
53072;SDS011;38955;48.916;2.336;2023-10-08T00:42:41;28.85;;;17.85;;
53072;SDS011;38955;48.916;2.336;2023-10-08T00:44:47;28.27;;;16.52;;
53072;SDS011;38955;48.916;2.336;2023-10-08T00:46:52;28.58;;;18.08;;
53072;SDS011;38955;48.916;2.336;2023-10-08T00:48:57;29.35;;;16.98;;
53072;SDS011;38955;48.916;2.336;2023-10-08T00:51:19;28.77;;;17.90;;
53072;SDS011;38955;48.916;2.336;2023-10-08T00:55:27;31.20;;;17.92;;
53072;SDS011;38955;48.916;2.336;2023-10-08T00:57:35;32.40;;;18.50;;
53072;SDS011;38955;48.916;2.336;2023-10-08T00:59:38;27.52;;;16.83;;
53072;SDS011;38955;48.916;2.336;2023-10-08T01:01:47;27.20;;;18.23;;
53072;SDS011;38955;48.916;2.336;2023-10-08T01:03:53;29.15;;;17.75;;
53072;SDS011;38955;48.916;2.336;2023-10-08T01:05:57;29.73;;;16.77;;
53072;SDS011;38955;48.916;2.336;2023-10-08T01:07:59;26.73;;;16.90;;
53072;SDS011;38955;48.916;2.336;2023-10-08T01:10:03;29.08;;;16.98;;
53072;SDS011;38955;48.916;2.336;2023-10-08T01:12:12;29.58;;;17.60;;
53072;SDS011;38955;48.916;2.336;2023-10-08T01:14:27;33.78;;;19.48;;
53072;SDS011;38955;48.916;2.336;2023-10-08T01:16:34;27.15;;;17.27;;
53072;SDS011;38955;48.916;2.336;2023-10-08T01:18:36;32.63;;;16.55;;
53072;SDS011;38955;48.916;2.336;2023-10-08T01:20:44;32.33;;;18.50;;
53072;SDS011;38955;48.916;2.336;2023-10-08T01:22:50;31.02;;;17.65;;
53072;SDS011;38955;48.916;2.336;2023-10-08T01:24:53;26.27;;;16.65;;
53072;SDS011;38955;48.916;2.336;2023-10-08T01:26:55;25.63;;;16.42;;
53072;SDS011;38955;48.916;2.336;2023-10-08T01:28:57;27.10;;;17.27;;
53072;SDS011;38955;48.916;2.336;2023-10-08T01:31:04;27.10;;;17.33;;
53072;SDS011;38955;48.916;2.336;2023-10-08T01:33:08;28.98;;;17.83;;
53072;SDS011;38955;48.916;2.336;2023-10-08T01:35:14;28.38;;;17.88;;
53072;SDS011;38955;48.916;2.336;2023-10-08T01:37:25;31.75;;;17.95;;
53072;SDS011;38955;48.916;2.336;2023-10-08T01:39:29;29.10;;;16.77;;
53072;SDS011;38955;48.916;2.336;2023-10-08T01:41:33;28.80;;;17.50;;
53072;SDS011;38955;48.916;2.336;2023-10-08T01:43:42;27.52;;;16.27;;
53072;SDS011;38955;48.916;2.336;2023-10-08T01:45:45;26.25;;;16.17;;
53072;SDS011;38955;48.916;2.336;2023-10-08T01:47:52;22.58;;;15.88;;
53072;SDS011;38955;48.916;2.336;2023-10-08T01:49:56;26.90;;;16.88;;
53072;SDS011;38955;48.916;2.336;2023-10-08T01:52:06;26.63;;;15.65;;
53072;SDS011;38955;48.916;2.336;2023-10-08T01:54:14;27.75;;;16.50;;
53072;SDS011;38955;48.916;2.336;2023-10-08T01:56:23;26.05;;;15.40;;
53072;SDS011;38955;48.916;2.336;2023-10-08T01:58:25;26.02;;;16.10;;
53072;SDS011;38955;48.916;2.336;2023-10-08T02:00:28;23.92;;;15.40;;
53072;SDS011;38955;48.916;2.336;2023-10-08T02:02:30;26.88;;;16.42;;
53072;SDS011;38955;48.916;2.336;2023-10-08T02:04:32;23.08;;;14.18;;
53072;SDS011;38955;48.916;2.336;2023-10-08T02:06:36;25.75;;;15.70;;
53072;SDS011;38955;48.916;2.336;2023-10-08T02:08:39;23.35;;;15.75;;
53072;SDS011;38955;48.916;2.336;2023-10-08T02:10:41;24.35;;;15.35;;
53072;SDS011;38955;48.916;2.336;2023-10-08T02:12:47;28.05;;;16.58;;
53072;SDS011;38955;48.916;2.336;2023-10-08T02:14:49;22.17;;;15.35;;
53072;SDS011;38955;48.916;2.336;2023-10-08T02:16:51;28.02;;;17.48;;
53072;SDS011;38955;48.916;2.336;2023-10-08T02:18:57;28.45;;;18.55;;
53072;SDS011;38955;48.916;2.336;2023-10-08T02:20:59;25.02;;;16.33;;
53072;SDS011;38955;48.916;2.336;2023-10-08T02:23:02;30.02;;;17.48;;
53072;SDS011;38955;48.916;2.336;2023-10-08T02:25:07;28.58;;;17.83;;
53072;SDS011;38955;48.916;2.336;2023-10-08T02:27:13;35.20;;;18.08;;
53072;SDS011;38955;48.916;2.336;2023-10-08T02:29:18;28.75;;;17.45;;
53072;SDS011;38955;48.916;2.336;2023-10-08T02:31:20;26.65;;;17.52;;
53072;SDS011;38955;48.916;2.336;2023-10-08T02:33:22;23.98;;;15.60;;
53072;SDS011;38955;48.916;2.336;2023-10-08T02:35:24;24.30;;;15.90;;
53072;SDS011;38955;48.916;2.336;2023-10-08T02:37:26;26.60;;;16.65;;
53072;SDS011;38955;48.916;2.336;2023-10-08T02:39:29;31.10;;;17.25;;
53072;SDS011;38955;48.916;2.336;2023-10-08T02:41:36;27.80;;;17.65;;
53072;SDS011;38955;48.916;2.336;2023-10-08T02:43:42;35.53;;;17.98;;
53072;SDS011;38955;48.916;2.336;2023-10-08T02:45:47;22.17;;;15.30;;
53072;SDS011;38955;48.916;2.336;2023-10-08T02:47:52;23.88;;;15.88;;
53072;SDS011;38955;48.916;2.336;2023-10-08T02:49:54;26.60;;;17.40;;
53072;SDS011;38955;48.916;2.336;2023-10-08T02:51:56;29.40;;;17.27;;
53072;SDS011;38955;48.916;2.336;2023-10-08T02:53:59;30.55;;;16.55;;
53072;SDS011;38955;48.916;2.336;2023-10-08T02:56:02;25.38;;;16.05;;
53072;SDS011;38955;48.916;2.336;2023-10-08T02:58:14;26.40;;;15.77;;
53072;SDS011;38955;48.916;2.336;2023-10-08T03:00:17;26.08;;;17.42;;
53072;SDS011;38955;48.916;2.336;2023-10-08T03:02:23;28.60;;;17.10;;
53072;SDS011;38955;48.916;2.336;2023-10-08T03:04:26;32.45;;;17.52;;
53072;SDS011;38955;48.916;2.336;2023-10-08T03:06:29;30.20;;;15.80;;
53072;SDS011;38955;48.916;2.336;2023-10-08T03:08:33;25.98;;;16.25;;
53072;SDS011;38955;48.916;2.336;2023-10-08T03:10:38;26.67;;;16.63;;
53072;SDS011;38955;48.916;2.336;2023-10-08T03:12:43;26.95;;;16.60;;
53072;SDS011;38955;48.916;2.336;2023-10-08T03:14:58;27.92;;;16.08;;
53072;SDS011;38955;48.916;2.336;2023-10-08T03:17:14;31.48;;;16.98;;
53072;SDS011;38955;48.916;2.336;2023-10-08T03:19:22;31.17;;;16.65;;
53072;SDS011;38955;48.916;2.336;2023-10-08T03:21:24;24.27;;;15.75;;
53072;SDS011;38955;48.916;2.336;2023-10-08T03:23:39;24.30;;;15.50;;
53072;SDS011;38955;48.916;2.336;2023-10-08T03:25:47;29.77;;;16.50;;
53072;SDS011;38955;48.916;2.336;2023-10-08T03:27:51;21.77;;;15.07;;
53072;SDS011;38955;48.916;2.336;2023-10-08T03:29:55;23.83;;;15.38;;
53072;SDS011;38955;48.916;2.336;2023-10-08T03:32:00;26.15;;;15.70;;
53072;SDS011;38955;48.916;2.336;2023-10-08T03:34:07;24.70;;;14.02;;
53072;SDS011;38955;48.916;2.336;2023-10-08T03:36:15;23.20;;;14.18;;
53072;SDS011;38955;48.916;2.336;2023-10-08T03:38:31;21.80;;;14.60;;
53072;SDS011;38955;48.916;2.336;2023-10-08T03:40:46;22.77;;;14.43;;
53072;SDS011;38955;48.916;2.336;2023-10-08T03:42:55;21.58;;;14.52;;
53072;SDS011;38955;48.916;2.336;2023-10-08T03:44:57;25.95;;;15.57;;
53072;SDS011;38955;48.916;2.336;2023-10-08T03:47:11;22.70;;;14.75;;
53072;SDS011;38955;48.916;2.336;2023-10-08T03:49:13;21.83;;;14.02;;
53072;SDS011;38955;48.916;2.336;2023-10-08T03:51:25;24.40;;;14.55;;
53072;SDS011;38955;48.916;2.336;2023-10-08T03:53:33;22.48;;;14.73;;
53072;SDS011;38955;48.916;2.336;2023-10-08T03:55:44;25.75;;;14.40;;
53072;SDS011;38955;48.916;2.336;2023-10-08T03:57:46;21.08;;;12.88;;
53072;SDS011;38955;48.916;2.336;2023-10-08T03:59:55;21.30;;;12.90;;
53072;SDS011;38955;48.916;2.336;2023-10-08T04:02:01;20.63;;;12.20;;
53072;SDS011;38955;48.916;2.336;2023-10-08T04:04:17;22.80;;;12.80;;
53072;SDS011;38955;48.916;2.336;2023-10-08T04:06:19;24.42;;;13.45;;
53072;SDS011;38955;48.916;2.336;2023-10-08T04:08:30;22.48;;;12.90;;
53072;SDS011;38955;48.916;2.336;2023-10-08T04:12:46;24.77;;;13.25;;
53072;SDS011;38955;48.916;2.336;2023-10-08T04:14:56;19.15;;;12.48;;
53072;SDS011;38955;48.916;2.336;2023-10-08T04:17:03;27.23;;;14.13;;
53072;SDS011;38955;48.916;2.336;2023-10-08T04:19:10;21.08;;;13.48;;
53072;SDS011;38955;48.916;2.336;2023-10-08T04:21:13;22.05;;;13.27;;
53072;SDS011;38955;48.916;2.336;2023-10-08T04:23:17;21.50;;;12.77;;
53072;SDS011;38955;48.916;2.336;2023-10-08T04:25:23;20.75;;;12.68;;
53072;SDS011;38955;48.916;2.336;2023-10-08T04:27:31;23.05;;;13.68;;
53072;SDS011;38955;48.916;2.336;2023-10-08T04:29:40;19.50;;;13.27;;
53072;SDS011;38955;48.916;2.336;2023-10-08T04:31:43;24.23;;;13.68;;
53072;SDS011;38955;48.916;2.336;2023-10-08T04:33:48;18.88;;;11.98;;
53072;SDS011;38955;48.916;2.336;2023-10-08T04:35:52;21.57;;;13.53;;
53072;SDS011;38955;48.916;2.336;2023-10-08T04:37:57;23.73;;;13.15;;
53072;SDS011;38955;48.916;2.336;2023-10-08T04:40:05;20.63;;;12.52;;
53072;SDS011;38955;48.916;2.336;2023-10-08T04:42:18;25.83;;;13.30;;
53072;SDS011;38955;48.916;2.336;2023-10-08T04:44:27;18.85;;;12.07;;
53072;SDS011;38955;48.916;2.336;2023-10-08T04:46:33;19.73;;;12.35;;
53072;SDS011;38955;48.916;2.336;2023-10-08T04:48:48;20.90;;;12.05;;
53072;SDS011;38955;48.916;2.336;2023-10-08T04:50:53;23.10;;;12.95;;
53072;SDS011;38955;48.916;2.336;2023-10-08T04:53:02;18.00;;;11.77;;
53072;SDS011;38955;48.916;2.336;2023-10-08T04:55:09;19.30;;;11.55;;
53072;SDS011;38955;48.916;2.336;2023-10-08T04:57:19;17.98;;;11.77;;
53072;SDS011;38955;48.916;2.336;2023-10-08T04:59:24;19.33;;;12.75;;
53072;SDS011;38955;48.916;2.336;2023-10-08T05:01:33;22.45;;;12.68;;
53072;SDS011;38955;48.916;2.336;2023-10-08T05:04:10;18.25;;;11.30;;
53072;SDS011;38955;48.916;2.336;2023-10-08T05:06:32;18.30;;;10.68;;
53072;SDS011;38955;48.916;2.336;2023-10-08T05:08:38;16.30;;;11.38;;
53072;SDS011;38955;48.916;2.336;2023-10-08T05:10:49;20.80;;;11.70;;
53072;SDS011;38955;48.916;2.336;2023-10-08T05:13:22;20.35;;;11.90;;
53072;SDS011;38955;48.916;2.336;2023-10-08T05:15:34;19.38;;;12.00;;
53072;SDS011;38955;48.916;2.336;2023-10-08T05:17:44;16.95;;;11.32;;
53072;SDS011;38955;48.916;2.336;2023-10-08T05:19:52;16.60;;;10.60;;
53072;SDS011;38955;48.916;2.336;2023-10-08T05:22:17;22.08;;;11.85;;
53072;SDS011;38955;48.916;2.336;2023-10-08T05:24:40;20.70;;;10.27;;
53072;SDS011;38955;48.916;2.336;2023-10-08T05:26:52;20.05;;;11.15;;
53072;SDS011;38955;48.916;2.336;2023-10-08T05:29:11;16.48;;;10.48;;
53072;SDS011;38955;48.916;2.336;2023-10-08T05:31:32;16.35;;;10.85;;
53072;SDS011;38955;48.916;2.336;2023-10-08T05:33:43;16.25;;;11.80;;
53072;SDS011;38955;48.916;2.336;2023-10-08T05:36:15;18.65;;;10.80;;
53072;SDS011;38955;48.916;2.336;2023-10-08T05:38:29;15.45;;;9.40;;
53072;SDS011;38955;48.916;2.336;2023-10-08T05:40:32;18.98;;;10.38;;
53072;SDS011;38955;48.916;2.336;2023-10-08T05:42:53;17.27;;;10.80;;
53072;SDS011;38955;48.916;2.336;2023-10-08T05:45:04;14.70;;;9.68;;
53072;SDS011;38955;48.916;2.336;2023-10-08T05:47:09;15.43;;;10.05;;
53072;SDS011;38955;48.916;2.336;2023-10-08T05:49:30;15.27;;;10.23;;
53072;SDS011;38955;48.916;2.336;2023-10-08T05:51:32;17.08;;;9.90;;
53072;SDS011;38955;48.916;2.336;2023-10-08T05:53:51;14.80;;;10.10;;
53072;SDS011;38955;48.916;2.336;2023-10-08T05:56:04;14.40;;;9.88;;
53072;SDS011;38955;48.916;2.336;2023-10-08T05:58:17;14.88;;;9.73;;
53072;SDS011;38955;48.916;2.336;2023-10-08T06:00:21;11.65;;;8.30;;
53072;SDS011;38955;48.916;2.336;2023-10-08T06:02:43;15.68;;;9.73;;
53072;SDS011;38955;48.916;2.336;2023-10-08T06:04:45;13.95;;;9.00;;
53072;SDS011;38955;48.916;2.336;2023-10-08T06:07:06;17.75;;;9.85;;
53072;SDS011;38955;48.916;2.336;2023-10-08T06:09:18;18.30;;;10.13;;
53072;SDS011;38955;48.916;2.336;2023-10-08T06:11:20;12.05;;;9.30;;
53072;SDS011;38955;48.916;2.336;2023-10-08T06:13:43;16.67;;;9.77;;
53072;SDS011;38955;48.916;2.336;2023-10-08T06:15:48;17.60;;;9.02;;
53072;SDS011;38955;48.916;2.336;2023-10-08T06:17:56;16.52;;;9.45;;
53072;SDS011;38955;48.916;2.336;2023-10-08T06:20:06;15.73;;;8.73;;
53072;SDS011;38955;48.916;2.336;2023-10-08T06:22:11;14.35;;;9.38;;
53072;SDS011;38955;48.916;2.336;2023-10-08T06:24:14;16.45;;;9.10;;
53072;SDS011;38955;48.916;2.336;2023-10-08T06:26:18;19.65;;;10.00;;
53072;SDS011;38955;48.916;2.336;2023-10-08T06:28:22;14.32;;;9.30;;
53072;SDS011;38955;48.916;2.336;2023-10-08T06:30:28;17.42;;;9.55;;
53072;SDS011;38955;48.916;2.336;2023-10-08T06:32:38;15.13;;;9.20;;
53072;SDS011;38955;48.916;2.336;2023-10-08T06:34:40;14.25;;;9.15;;
53072;SDS011;38955;48.916;2.336;2023-10-08T06:36:42;19.77;;;9.60;;
53072;SDS011;38955;48.916;2.336;2023-10-08T06:38:45;16.67;;;9.75;;
53072;SDS011;38955;48.916;2.336;2023-10-08T06:40:51;15.70;;;9.40;;
53072;SDS011;38955;48.916;2.336;2023-10-08T06:42:54;14.43;;;8.65;;
53072;SDS011;38955;48.916;2.336;2023-10-08T06:44:58;14.73;;;8.85;;
53072;SDS011;38955;48.916;2.336;2023-10-08T06:47:02;14.80;;;9.27;;
53072;SDS011;38955;48.916;2.336;2023-10-08T06:49:12;18.02;;;9.80;;
53072;SDS011;38955;48.916;2.336;2023-10-08T06:53:20;16.95;;;9.23;;
53072;SDS011;38955;48.916;2.336;2023-10-08T06:55:23;14.40;;;8.82;;
53072;SDS011;38955;48.916;2.336;2023-10-08T06:57:28;16.02;;;9.13;;
53072;SDS011;38955;48.916;2.336;2023-10-08T06:59:30;14.73;;;9.20;;
53072;SDS011;38955;48.916;2.336;2023-10-08T07:01:33;19.23;;;8.85;;
53072;SDS011;38955;48.916;2.336;2023-10-08T07:03:41;15.52;;;9.18;;
53072;SDS011;38955;48.916;2.336;2023-10-08T07:05:47;13.43;;;8.27;;
53072;SDS011;38955;48.916;2.336;2023-10-08T07:08:00;13.52;;;8.88;;
53072;SDS011;38955;48.916;2.336;2023-10-08T07:10:08;14.18;;;8.98;;
53072;SDS011;38955;48.916;2.336;2023-10-08T07:12:12;17.90;;;9.65;;
53072;SDS011;38955;48.916;2.336;2023-10-08T07:14:16;13.57;;;8.25;;
53072;SDS011;38955;48.916;2.336;2023-10-08T07:16:19;15.95;;;8.63;;
53072;SDS011;38955;48.916;2.336;2023-10-08T07:18:22;16.02;;;9.45;;
53072;SDS011;38955;48.916;2.336;2023-10-08T07:20:28;13.27;;;8.95;;
53072;SDS011;38955;48.916;2.336;2023-10-08T07:22:31;16.73;;;9.88;;
53072;SDS011;38955;48.916;2.336;2023-10-08T07:26:36;16.50;;;9.88;;
53072;SDS011;38955;48.916;2.336;2023-10-08T07:28:39;17.25;;;10.20;;
53072;SDS011;38955;48.916;2.336;2023-10-08T07:30:41;15.00;;;8.23;;
53072;SDS011;38955;48.916;2.336;2023-10-08T07:32:45;16.83;;;9.85;;
53072;SDS011;38955;48.916;2.336;2023-10-08T07:34:48;13.07;;;9.68;;
53072;SDS011;38955;48.916;2.336;2023-10-08T07:36:58;13.85;;;8.80;;
53072;SDS011;38955;48.916;2.336;2023-10-08T07:39:03;13.77;;;8.77;;
53072;SDS011;38955;48.916;2.336;2023-10-08T07:41:10;15.10;;;8.95;;
53072;SDS011;38955;48.916;2.336;2023-10-08T07:43:16;15.07;;;9.13;;
53072;SDS011;38955;48.916;2.336;2023-10-08T07:45:21;16.50;;;9.68;;
53072;SDS011;38955;48.916;2.336;2023-10-08T07:47:23;18.20;;;9.45;;
53072;SDS011;38955;48.916;2.336;2023-10-08T07:49:26;17.85;;;9.85;;
53072;SDS011;38955;48.916;2.336;2023-10-08T07:51:31;20.48;;;10.60;;
53072;SDS011;38955;48.916;2.336;2023-10-08T07:53:34;15.75;;;9.90;;
53072;SDS011;38955;48.916;2.336;2023-10-08T07:55:40;14.88;;;9.77;;
53072;SDS011;38955;48.916;2.336;2023-10-08T07:57:42;14.73;;;9.00;;
53072;SDS011;38955;48.916;2.336;2023-10-08T07:59:45;19.05;;;11.65;;
53072;SDS011;38955;48.916;2.336;2023-10-08T08:01:49;15.60;;;9.95;;
53072;SDS011;38955;48.916;2.336;2023-10-08T08:03:53;16.08;;;10.70;;
53072;SDS011;38955;48.916;2.336;2023-10-08T08:05:55;15.15;;;10.75;;
53072;SDS011;38955;48.916;2.336;2023-10-08T08:08:00;15.30;;;10.13;;
53072;SDS011;38955;48.916;2.336;2023-10-08T08:10:07;17.88;;;10.50;;
53072;SDS011;38955;48.916;2.336;2023-10-08T08:12:14;24.75;;;11.15;;
53072;SDS011;38955;48.916;2.336;2023-10-08T08:14:16;20.48;;;11.05;;
53072;SDS011;38955;48.916;2.336;2023-10-08T08:16:18;15.90;;;9.27;;
53072;SDS011;38955;48.916;2.336;2023-10-08T08:18:22;19.85;;;10.15;;
53072;SDS011;38955;48.916;2.336;2023-10-08T08:20:25;15.48;;;9.68;;
53072;SDS011;38955;48.916;2.336;2023-10-08T08:22:40;19.88;;;10.32;;
53072;SDS011;38955;48.916;2.336;2023-10-08T08:24:42;17.50;;;10.68;;
53072;SDS011;38955;48.916;2.336;2023-10-08T08:26:46;22.63;;;13.13;;
53072;SDS011;38955;48.916;2.336;2023-10-08T08:29:09;18.83;;;11.93;;
53072;SDS011;38955;48.916;2.336;2023-10-08T08:31:16;23.90;;;12.90;;
53072;SDS011;38955;48.916;2.336;2023-10-08T08:33:21;22.45;;;13.30;;
53072;SDS011;38955;48.916;2.336;2023-10-08T08:35:24;19.13;;;12.20;;
53072;SDS011;38955;48.916;2.336;2023-10-08T08:37:26;20.33;;;11.88;;
53072;SDS011;38955;48.916;2.336;2023-10-08T08:39:31;22.35;;;14.07;;
53072;SDS011;38955;48.916;2.336;2023-10-08T08:41:38;20.17;;;13.10;;
53072;SDS011;38955;48.916;2.336;2023-10-08T08:43:40;21.75;;;13.32;;
53072;SDS011;38955;48.916;2.336;2023-10-08T08:45:46;18.73;;;13.00;;
53072;SDS011;38955;48.916;2.336;2023-10-08T08:47:51;24.77;;;13.88;;
53072;SDS011;38955;48.916;2.336;2023-10-08T08:49:54;26.85;;;13.55;;
53072;SDS011;38955;48.916;2.336;2023-10-08T08:51:58;22.83;;;13.45;;
53072;SDS011;38955;48.916;2.336;2023-10-08T08:54:02;23.92;;;13.70;;
53072;SDS011;38955;48.916;2.336;2023-10-08T08:56:08;27.00;;;14.57;;
53072;SDS011;38955;48.916;2.336;2023-10-08T08:58:11;27.27;;;13.70;;
53072;SDS011;38955;48.916;2.336;2023-10-08T09:00:14;17.85;;;12.52;;
53072;SDS011;38955;48.916;2.336;2023-10-08T09:02:20;19.10;;;12.60;;
53072;SDS011;38955;48.916;2.336;2023-10-08T09:04:27;20.60;;;12.45;;
53072;SDS011;38955;48.916;2.336;2023-10-08T09:06:31;18.60;;;11.77;;
53072;SDS011;38955;48.916;2.336;2023-10-08T09:08:35;16.98;;;11.10;;
53072;SDS011;38955;48.916;2.336;2023-10-08T09:10:38;20.63;;;12.00;;
53072;SDS011;38955;48.916;2.336;2023-10-08T09:12:53;17.33;;;10.88;;
53072;SDS011;38955;48.916;2.336;2023-10-08T09:15:00;16.75;;;11.85;;
53072;SDS011;38955;48.916;2.336;2023-10-08T09:17:04;17.27;;;10.40;;
53072;SDS011;38955;48.916;2.336;2023-10-08T09:19:08;15.65;;;10.60;;
53072;SDS011;38955;48.916;2.336;2023-10-08T09:21:14;19.85;;;11.35;;
53072;SDS011;38955;48.916;2.336;2023-10-08T09:23:17;19.17;;;11.82;;
53072;SDS011;38955;48.916;2.336;2023-10-08T09:25:19;20.08;;;10.95;;
53072;SDS011;38955;48.916;2.336;2023-10-08T09:27:25;16.42;;;10.50;;
53072;SDS011;38955;48.916;2.336;2023-10-08T09:29:28;17.95;;;10.80;;
53072;SDS011;38955;48.916;2.336;2023-10-08T09:31:31;16.85;;;10.57;;
53072;SDS011;38955;48.916;2.336;2023-10-08T09:33:37;16.85;;;9.95;;
53072;SDS011;38955;48.916;2.336;2023-10-08T09:35:41;16.70;;;11.02;;
53072;SDS011;38955;48.916;2.336;2023-10-08T09:37:47;18.50;;;11.98;;
53072;SDS011;38955;48.916;2.336;2023-10-08T09:39:49;19.30;;;11.65;;
53072;SDS011;38955;48.916;2.336;2023-10-08T09:41:54;20.48;;;10.30;;
53072;SDS011;38955;48.916;2.336;2023-10-08T09:43:56;18.85;;;10.43;;
53072;SDS011;38955;48.916;2.336;2023-10-08T09:46:03;15.00;;;10.25;;
53072;SDS011;38955;48.916;2.336;2023-10-08T09:48:10;14.30;;;8.73;;
53072;SDS011;38955;48.916;2.336;2023-10-08T09:50:14;16.33;;;9.57;;
53072;SDS011;38955;48.916;2.336;2023-10-08T09:52:19;13.75;;;9.23;;
53072;SDS011;38955;48.916;2.336;2023-10-08T09:54:28;13.85;;;9.30;;
53072;SDS011;38955;48.916;2.336;2023-10-08T09:56:35;17.70;;;9.13;;
53072;SDS011;38955;48.916;2.336;2023-10-08T09:58:37;19.20;;;8.85;;
53072;SDS011;38955;48.916;2.336;2023-10-08T10:00:40;12.38;;;8.43;;
53072;SDS011;38955;48.916;2.336;2023-10-08T10:02:46;16.50;;;8.80;;
53072;SDS011;38955;48.916;2.336;2023-10-08T10:04:49;14.05;;;7.75;;
53072;SDS011;38955;48.916;2.336;2023-10-08T10:06:55;18.20;;;7.97;;
53072;SDS011;38955;48.916;2.336;2023-10-08T10:09:01;16.60;;;7.72;;
53072;SDS011;38955;48.916;2.336;2023-10-08T10:11:08;12.35;;;7.55;;
53072;SDS011;38955;48.916;2.336;2023-10-08T10:13:12;11.63;;;7.18;;
53072;SDS011;38955;48.916;2.336;2023-10-08T10:15:14;11.98;;;8.30;;
53072;SDS011;38955;48.916;2.336;2023-10-08T10:17:31;20.23;;;9.10;;
53072;SDS011;38955;48.916;2.336;2023-10-08T10:19:49;12.07;;;8.53;;
53072;SDS011;38955;48.916;2.336;2023-10-08T10:21:52;21.92;;;9.48;;
53072;SDS011;38955;48.916;2.336;2023-10-08T10:23:58;18.35;;;8.57;;
53072;SDS011;38955;48.916;2.336;2023-10-08T10:26:02;14.90;;;8.38;;
53072;SDS011;38955;48.916;2.336;2023-10-08T10:28:23;14.18;;;8.27;;
53072;SDS011;38955;48.916;2.336;2023-10-08T10:30:25;13.98;;;8.00;;
53072;SDS011;38955;48.916;2.336;2023-10-08T10:32:29;13.40;;;7.22;;
53072;SDS011;38955;48.916;2.336;2023-10-08T10:34:31;19.05;;;8.23;;
53072;SDS011;38955;48.916;2.336;2023-10-08T10:38:38;16.58;;;7.63;;
53072;SDS011;38955;48.916;2.336;2023-10-08T10:40:43;15.23;;;8.13;;
53072;SDS011;38955;48.916;2.336;2023-10-08T10:43:00;10.18;;;7.32;;
53072;SDS011;38955;48.916;2.336;2023-10-08T10:47:10;15.57;;;8.95;;
53072;SDS011;38955;48.916;2.336;2023-10-08T10:49:18;14.93;;;8.07;;
53072;SDS011;38955;48.916;2.336;2023-10-08T10:51:23;15.25;;;8.80;;
53072;SDS011;38955;48.916;2.336;2023-10-08T10:53:25;14.93;;;8.32;;
53072;SDS011;38955;48.916;2.336;2023-10-08T10:55:29;13.57;;;8.00;;
53072;SDS011;38955;48.916;2.336;2023-10-08T10:57:34;18.55;;;7.75;;
53072;SDS011;38955;48.916;2.336;2023-10-08T10:59:37;16.38;;;8.65;;
53072;SDS011;38955;48.916;2.336;2023-10-08T11:01:47;13.32;;;8.27;;
53072;SDS011;38955;48.916;2.336;2023-10-08T11:03:55;16.63;;;7.63;;
53072;SDS011;38955;48.916;2.336;2023-10-08T11:05:59;12.95;;;6.63;;
53072;SDS011;38955;48.916;2.336;2023-10-08T11:08:07;12.60;;;6.57;;
53072;SDS011;38955;48.916;2.336;2023-10-08T11:10:10;12.57;;;7.22;;
53072;SDS011;38955;48.916;2.336;2023-10-08T11:12:17;10.98;;;7.20;;
53072;SDS011;38955;48.916;2.336;2023-10-08T11:14:25;14.65;;;7.38;;
53072;SDS011;38955;48.916;2.336;2023-10-08T11:16:28;13.15;;;7.10;;
53072;SDS011;38955;48.916;2.336;2023-10-08T11:18:33;11.27;;;6.57;;
53072;SDS011;38955;48.916;2.336;2023-10-08T11:20:35;13.25;;;6.75;;
53072;SDS011;38955;48.916;2.336;2023-10-08T11:22:41;12.75;;;7.15;;
53072;SDS011;38955;48.916;2.336;2023-10-08T11:24:47;15.02;;;6.78;;
53072;SDS011;38955;48.916;2.336;2023-10-08T11:26:49;14.07;;;7.10;;
53072;SDS011;38955;48.916;2.336;2023-10-08T11:29:08;12.82;;;7.15;;
53072;SDS011;38955;48.916;2.336;2023-10-08T11:31:17;13.35;;;6.43;;
53072;SDS011;38955;48.916;2.336;2023-10-08T11:33:22;15.40;;;7.05;;
53072;SDS011;38955;48.916;2.336;2023-10-08T11:35:25;15.65;;;7.20;;
53072;SDS011;38955;48.916;2.336;2023-10-08T11:37:30;20.05;;;7.13;;
53072;SDS011;38955;48.916;2.336;2023-10-08T11:39:38;17.10;;;7.95;;
53072;SDS011;38955;48.916;2.336;2023-10-08T11:41:54;14.00;;;6.75;;
53072;SDS011;38955;48.916;2.336;2023-10-08T11:43:57;16.50;;;7.20;;
53072;SDS011;38955;48.916;2.336;2023-10-08T11:45:59;11.82;;;6.10;;
53072;SDS011;38955;48.916;2.336;2023-10-08T11:48:05;10.68;;;6.47;;
53072;SDS011;38955;48.916;2.336;2023-10-08T11:50:15;12.20;;;6.88;;
53072;SDS011;38955;48.916;2.336;2023-10-08T11:52:21;11.95;;;6.25;;
53072;SDS011;38955;48.916;2.336;2023-10-08T11:54:23;12.15;;;6.90;;
53072;SDS011;38955;48.916;2.336;2023-10-08T11:56:27;10.38;;;5.85;;
53072;SDS011;38955;48.916;2.336;2023-10-08T11:58:30;13.73;;;6.60;;
53072;SDS011;38955;48.916;2.336;2023-10-08T12:00:42;9.02;;;5.40;;
53072;SDS011;38955;48.916;2.336;2023-10-08T12:02:46;13.23;;;5.95;;
53072;SDS011;38955;48.916;2.336;2023-10-08T12:04:49;10.80;;;5.63;;
53072;SDS011;38955;48.916;2.336;2023-10-08T12:06:52;11.27;;;5.30;;
53072;SDS011;38955;48.916;2.336;2023-10-08T12:08:56;13.13;;;5.72;;
53072;SDS011;38955;48.916;2.336;2023-10-08T12:11:12;10.50;;;5.40;;
53072;SDS011;38955;48.916;2.336;2023-10-08T12:13:15;10.60;;;5.50;;
53072;SDS011;38955;48.916;2.336;2023-10-08T12:15:25;9.20;;;4.57;;
53072;SDS011;38955;48.916;2.336;2023-10-08T12:17:39;10.65;;;5.40;;
53072;SDS011;38955;48.916;2.336;2023-10-08T12:19:41;12.30;;;5.47;;
53072;SDS011;38955;48.916;2.336;2023-10-08T12:21:44;9.45;;;5.05;;
53072;SDS011;38955;48.916;2.336;2023-10-08T12:23:52;11.60;;;5.10;;
53072;SDS011;38955;48.916;2.336;2023-10-08T12:25:56;13.30;;;5.30;;
53072;SDS011;38955;48.916;2.336;2023-10-08T12:27:59;11.15;;;5.63;;
53072;SDS011;38955;48.916;2.336;2023-10-08T12:30:06;8.50;;;4.53;;
53072;SDS011;38955;48.916;2.336;2023-10-08T12:32:12;7.63;;;4.70;;
53072;SDS011;38955;48.916;2.336;2023-10-08T12:34:19;10.48;;;4.95;;
53072;SDS011;38955;48.916;2.336;2023-10-08T12:36:24;8.65;;;4.05;;